createdAt,value
2022-09-03T00:00:14.719Z,70.55
2022-09-03T00:02:50.844Z,70.57
2022-09-03T00:05:27.508Z,70.61
2022-09-03T00:08:04.803Z,70.80
2022-09-03T00:10:43.862Z,70.85
2022-09-03T00:13:20.368Z,71.02
2022-09-03T00:15:54.857Z,71.13
2022-09-03T00:18:30.985Z,71.26
2022-09-03T00:21:08.771Z,71.27
2022-09-03T00:23:48.251Z,71.21
2022-09-03T00:26:26.628Z,71.24
2022-09-03T00:29:03.870Z,71.35
2022-09-03T00:31:40.482Z,71.48
2022-09-03T00:34:17.674Z,71.50
2022-09-03T00:36:50.916Z,71.62
2022-09-03T00:39:26.389Z,71.76
2022-09-03T00:42:08.156Z,71.98
2022-09-03T00:44:57.137Z,71.93
2022-09-03T00:47:33.867Z,71.98
2022-09-03T00:50:13.115Z,71.93
2022-09-03T00:52:52.567Z,72.01
2022-09-03T00:55:31.151Z,72.16
2022-09-03T00:58:17.388Z,72.28
2022-09-03T01:00:52.964Z,72.31
2022-09-03T01:03:30.465Z,72.40
2022-09-03T01:06:17.012Z,72.49
2022-09-03T01:09:16.654Z,72.49
2022-09-03T01:11:56.580Z,72.69
2022-09-03T01:14:35.954Z,72.86
2022-09-03T01:17:13.783Z,73.02
2022-09-03T01:20:03.519Z,73.21
2022-09-03T01:23:04.538Z,73.27
2022-09-03T01:25:48.847Z,73.30
2022-09-03T01:28:37.146Z,73.34
2022-09-03T01:31:16.455Z,73.44
2022-09-03T01:33:55.044Z,73.53
2022-09-03T01:36:32.279Z,73.52
2022-09-03T01:39:08.230Z,73.58
2022-09-03T01:42:05.745Z,73.67
2022-09-03T01:44:44.758Z,73.79
2022-09-03T01:47:22.538Z,73.87
2022-09-03T01:49:59.666Z,73.99
2022-09-03T01:52:39.357Z,74.02
2022-09-03T01:55:18.910Z,74.18
2022-09-03T01:57:57.364Z,74.24
2022-09-03T02:00:32.596Z,74.28
2022-09-03T02:03:08.523Z,74.33
2022-09-03T02:05:43.088Z,74.39
2022-09-03T02:08:16.105Z,74.44
2022-09-03T02:10:52.082Z,74.57
2022-09-03T02:16:14.553Z,74.71
2022-09-03T02:18:51.019Z,74.74
2022-09-03T02:21:26.094Z,74.75
2022-09-03T02:23:59.451Z,74.81
2022-09-03T02:26:32.562Z,74.84
2022-09-03T02:29:05.920Z,74.89
2022-09-03T02:31:38.991Z,74.95
2022-09-03T02:34:12.216Z,75.04
2022-09-03T02:36:47.065Z,75.01
2022-09-03T02:39:20.115Z,74.98
2022-09-03T02:41:57.397Z,75.02
2022-09-03T02:44:32.973Z,75.04
2022-09-03T02:47:08.604Z,75.00
2022-09-03T02:49:41.566Z,75.00
2022-09-03T02:52:14.496Z,74.99
2022-09-03T02:54:47.790Z,74.97
2022-09-03T02:57:27.421Z,74.94
2022-09-03T02:59:56.601Z,74.94
2022-09-03T03:02:29.807Z,74.94
2022-09-03T03:05:03.155Z,74.96
2022-09-03T03:07:39.388Z,74.99
2022-09-03T03:10:13.608Z,75.00
2022-09-03T03:12:46.864Z,75.06
2022-09-03T03:15:21.071Z,75.10
2022-09-03T03:17:54.265Z,75.08
2022-09-03T03:20:27.769Z,75.15
2022-09-03T03:23:02.383Z,75.20
2022-09-03T03:25:35.644Z,75.23
2022-09-03T03:28:10.292Z,75.30
2022-09-03T03:30:45.764Z,75.33
2022-09-03T03:33:19.101Z,75.33
2022-09-03T03:35:52.292Z,75.33
2022-09-03T03:38:25.725Z,75.32
2022-09-03T03:41:01.587Z,75.33
2022-09-03T03:43:36.391Z,75.35
2022-09-03T03:46:10.903Z,75.40
2022-09-03T03:48:44.354Z,75.44
2022-09-03T03:51:17.785Z,75.46
2022-09-03T03:53:52.695Z,75.47
2022-09-03T03:56:29.017Z,75.47
2022-09-03T03:59:03.074Z,75.51
2022-09-03T04:01:36.394Z,75.48
2022-09-03T04:04:09.733Z,75.42
2022-09-03T04:06:43.264Z,75.31
2022-09-03T04:09:16.567Z,75.27
2022-09-03T04:11:50.712Z,75.28
2022-09-03T04:14:23.876Z,75.25
2022-09-03T04:16:57.537Z,75.17
2022-09-03T04:19:30.727Z,75.15
2022-09-03T04:22:04.395Z,75.10
2022-09-03T04:24:39.663Z,75.04
2022-09-03T04:27:15.345Z,75.10
2022-09-03T04:29:48.493Z,75.10
2022-09-03T04:32:39.414Z,75.13
2022-09-03T04:35:12.967Z,75.06
2022-09-03T04:37:46.273Z,75.07
2022-09-03T04:40:19.887Z,75.13
2022-09-03T04:42:54.686Z,75.08
2022-09-03T04:45:29.028Z,75.04
2022-09-03T04:48:03.774Z,75.00
2022-09-03T04:50:37.039Z,74.94
2022-09-03T04:53:10.509Z,74.90
2022-09-03T04:55:43.701Z,74.79
2022-09-03T04:58:16.973Z,74.71
2022-09-03T05:00:51.886Z,74.62
2022-09-03T05:03:25.251Z,74.43
2022-09-03T05:05:59.715Z,74.29
2022-09-03T05:08:34.988Z,74.06
2022-09-03T05:11:09.187Z,73.93
2022-09-03T05:13:42.394Z,73.88
2022-09-03T05:16:15.591Z,73.82
2022-09-03T05:18:49.978Z,73.85
2022-09-03T05:21:24.705Z,73.65
2022-09-03T05:23:57.955Z,73.51
2022-09-03T05:26:36.203Z,73.36
2022-09-03T05:29:10.943Z,73.16
2022-09-03T05:31:44.237Z,72.83
2022-09-03T05:34:19.796Z,72.73
2022-09-03T05:36:56.274Z,72.78
2022-09-03T05:39:29.822Z,72.63
2022-09-03T05:42:03.045Z,72.49
2022-09-03T05:44:39.395Z,72.22
2022-09-03T05:47:13.134Z,71.92
2022-09-03T05:49:46.674Z,71.97
2022-09-03T05:52:22.144Z,71.36
2022-09-03T05:54:55.498Z,71.25
2022-09-03T06:00:19.083Z,71.04
2022-09-03T06:02:54.394Z,70.81
2022-09-03T06:05:31.612Z,70.96
2022-09-03T06:08:06.758Z,70.71
2022-09-03T06:10:41.247Z,70.55
2022-09-03T06:13:15.078Z,70.52
2022-09-03T06:15:48.561Z,70.07
2022-09-03T06:18:26.838Z,69.66
2022-09-03T06:21:05.760Z,69.68
2022-09-03T06:23:41.047Z,69.43
2022-09-03T06:26:16.499Z,68.99
2022-09-03T06:28:50.332Z,68.95
2022-09-03T06:31:24.271Z,68.19
2022-09-03T06:34:03.371Z,66.99
2022-09-03T06:36:33.935Z,62.17
2022-09-03T06:39:07.273Z,58.37
2022-09-03T06:41:40.478Z,56.19
2022-09-03T06:44:15.419Z,54.29
2022-09-03T06:46:48.867Z,51.12
2022-09-03T06:49:22.427Z,49.11
2022-09-03T06:51:55.713Z,47.72
2022-09-03T06:54:29.114Z,47.14
2022-09-03T06:57:03.789Z,46.39
2022-09-03T06:59:36.997Z,44.34
2022-09-03T07:02:10.586Z,43.07
2022-09-03T07:04:44.269Z,42.62
2022-09-03T07:07:17.522Z,42.27
2022-09-03T07:09:50.855Z,41.17
2022-09-03T07:12:24.037Z,39.46
2022-09-03T07:14:57.152Z,37.72
2022-09-03T07:17:30.342Z,36.42
2022-09-03T07:20:03.692Z,36.23
2022-09-03T07:22:36.973Z,34.96
2022-09-03T07:25:11.658Z,35.18
2022-09-03T07:27:45.019Z,34.51
2022-09-03T07:30:19.804Z,34.42
2022-09-03T07:32:54.250Z,34.62
2022-09-03T07:35:27.787Z,33.18
2022-09-03T07:38:01.236Z,33.22
2022-09-03T07:40:34.461Z,35.47
2022-09-03T07:43:07.948Z,34.07
2022-09-03T07:45:41.412Z,34.47
2022-09-03T07:48:16.834Z,34.23
2022-09-03T07:50:50.041Z,34.68
2022-09-03T07:53:23.285Z,35.19
2022-09-03T07:55:57.194Z,34.62
2022-09-03T07:58:33.052Z,35.36
2022-09-03T08:01:11.289Z,35.96
2022-09-03T08:03:47.797Z,35.35
2022-09-03T08:06:23.002Z,33.69
2022-09-03T08:09:04.662Z,32.95
2022-09-03T08:11:37.197Z,36.07
2022-09-03T08:14:12.775Z,38.20
2022-09-03T08:16:48.390Z,37.62
2022-09-03T08:19:25.046Z,38.34
2022-09-03T08:21:58.969Z,40.76
2022-09-03T08:24:34.491Z,38.71
2022-09-03T08:27:10.859Z,38.51
2022-09-03T08:29:45.990Z,36.66
2022-09-03T08:32:20.269Z,34.82
2022-09-03T08:34:55.732Z,32.57
2022-09-03T08:37:30.023Z,30.64
2022-09-03T08:40:05.313Z,29.71
2022-09-03T08:42:49.018Z,30.33
2022-09-03T08:45:24.623Z,31.33
2022-09-03T08:48:02.197Z,32.44
2022-09-03T08:50:38.717Z,31.98
2022-09-03T08:53:16.179Z,30.51
2022-09-03T08:55:54.167Z,30.68
2022-09-03T08:58:29.439Z,30.62
2022-09-03T09:01:05.639Z,28.81
2022-09-03T09:03:48.142Z,28.04
2022-09-03T09:06:25.887Z,27.39
2022-09-03T09:09:07.320Z,27.11
2022-09-03T09:11:49.785Z,26.87
2022-09-03T09:14:26.880Z,26.42
2022-09-03T09:17:04.368Z,26.57
2022-09-03T09:19:40.840Z,27.15
2022-09-03T09:22:17.796Z,26.22
2022-09-03T09:24:53.479Z,27.63
2022-09-03T09:27:27.415Z,29.35
2022-09-03T09:30:03.497Z,31.80
2022-09-03T09:32:38.562Z,34.07
2022-09-03T09:35:12.779Z,35.44
2022-09-03T09:37:54.499Z,36.65
2022-09-03T09:40:33.339Z,37.03
2022-09-03T09:43:08.912Z,37.50
2022-09-03T09:45:44.112Z,37.23
2022-09-03T09:48:21.943Z,37.86
2022-09-03T09:50:55.136Z,38.27
2022-09-03T09:53:30.428Z,37.79
2022-09-03T09:56:04.617Z,37.38
2022-09-03T09:58:38.620Z,37.32
2022-09-03T10:01:16.800Z,37.95
2022-09-03T10:03:55.578Z,38.54
2022-09-03T10:06:55.917Z,38.94
2022-09-03T10:09:32.326Z,39.38
2022-09-03T10:14:57.234Z,39.34
2022-09-03T10:17:36.913Z,38.54
2022-09-03T10:20:34.019Z,33.80
2022-09-03T10:23:14.918Z,31.44
2022-09-03T10:26:00.289Z,32.13
2022-09-03T10:28:35.395Z,31.24
2022-09-03T10:31:31.107Z,29.36
2022-09-03T10:34:08.432Z,26.74
2022-09-03T10:36:45.901Z,28.90
2022-09-03T10:39:23.031Z,29.70
2022-09-03T10:42:07.043Z,28.58
2022-09-03T10:44:51.333Z,27.37
2022-09-03T10:47:32.372Z,29.53
2022-09-03T10:50:12.835Z,28.17
2022-09-03T10:52:55.507Z,26.79
2022-09-03T10:55:32.641Z,24.88
2022-09-03T10:58:11.772Z,23.36
2022-09-03T11:00:49.757Z,25.70
2022-09-03T11:03:48.453Z,25.43
2022-09-03T11:06:25.498Z,25.67
2022-09-03T11:09:06.629Z,26.93
2022-09-03T11:11:41.658Z,25.55
2022-09-03T11:14:19.335Z,26.65
2022-09-03T11:16:55.575Z,28.88
2022-09-03T11:19:32.520Z,30.65
2022-09-03T11:22:07.990Z,31.91
2022-09-03T11:24:44.800Z,33.24
2022-09-03T11:27:26.415Z,34.11
2022-09-03T11:30:03.095Z,34.61
2022-09-03T11:32:46.669Z,35.00
2022-09-03T11:35:28.351Z,35.56
2022-09-03T11:38:04.052Z,35.83
2022-09-03T11:40:40.141Z,35.86
2022-09-03T11:43:17.902Z,35.99
2022-09-03T11:45:50.642Z,36.12
2022-09-03T11:48:38.098Z,35.36
2022-09-03T11:51:25.970Z,35.48
2022-09-03T11:54:00.726Z,32.94
2022-09-03T11:56:36.888Z,30.40
2022-09-03T11:59:20.976Z,30.68
2022-09-03T12:01:57.514Z,32.19
2022-09-03T12:04:34.304Z,33.09
2022-09-03T12:07:23.702Z,33.24
2022-09-03T12:10:16.002Z,32.78
2022-09-03T12:13:24.230Z,32.93
2022-09-03T12:19:14.935Z,28.50
2022-09-03T12:21:50.916Z,26.68
2022-09-03T12:24:24.359Z,25.56
2022-09-03T12:26:59.018Z,25.67
2022-09-03T12:29:33.678Z,24.47
2022-09-03T12:32:12.671Z,25.00
2022-09-03T12:34:46.119Z,25.18
2022-09-03T12:40:08.223Z,25.70
2022-09-03T12:42:38.492Z,25.94
2022-09-03T12:45:16.111Z,25.44
2022-09-03T12:47:49.401Z,26.32
2022-09-03T12:50:24.422Z,26.84
2022-09-03T12:53:00.680Z,26.78
2022-09-03T12:55:37.196Z,25.37
2022-09-03T12:58:14.158Z,25.69
2022-09-03T13:00:51.102Z,25.55
2022-09-03T13:03:29.425Z,25.45
2022-09-03T13:06:10.023Z,25.45
2022-09-03T13:08:49.017Z,24.67
2022-09-03T13:11:31.960Z,25.76
2022-09-03T13:14:10.258Z,26.01
2022-09-03T13:17:30.553Z,28.25
2022-09-03T13:20:25.365Z,30.38
2022-09-03T13:23:15.968Z,32.08
2022-09-03T13:26:18.358Z,32.44
2022-09-03T13:29:03.361Z,32.74
2022-09-03T13:31:40.117Z,30.22
2022-09-03T13:37:52.599Z,27.13
2022-09-03T13:41:11.422Z,26.78
2022-09-03T13:44:20.922Z,28.87
2022-09-03T13:51:28.984Z,29.82
2022-09-03T13:54:48.219Z,31.01
2022-09-03T13:57:14.333Z,29.49
2022-09-03T14:01:04.923Z,28.39
2022-09-03T14:03:52.352Z,28.31
2022-09-03T14:06:50.640Z,28.52
2022-09-03T14:09:50.898Z,27.83
2022-09-03T14:12:34.323Z,28.54
2022-09-03T14:15:56.297Z,28.65
2022-09-03T14:19:04.425Z,28.51
2022-09-03T14:21:48.446Z,29.28
2022-09-03T14:28:16.432Z,32.81
2022-09-03T14:33:59.837Z,34.48
2022-09-03T14:36:36.352Z,34.67
2022-09-03T14:39:32.662Z,34.81
2022-09-03T14:42:21.640Z,35.06
2022-09-03T14:45:04.334Z,35.55
2022-09-03T14:47:44.295Z,35.97
2022-09-03T14:50:29.080Z,36.25
2022-09-03T14:54:01.884Z,36.48
2022-09-03T14:56:52.828Z,36.77
2022-09-03T14:59:40.217Z,35.74
2022-09-03T15:03:16.381Z,35.64
2022-09-03T15:06:13.838Z,36.11
2022-09-03T15:08:57.316Z,36.39
2022-09-03T15:11:33.768Z,37.14
2022-09-03T15:14:10.935Z,37.56
2022-09-03T15:16:51.414Z,37.96
2022-09-03T15:19:39.916Z,38.21
2022-09-03T15:22:20.875Z,38.55
2022-09-03T15:24:58.569Z,38.68
2022-09-03T15:27:41.903Z,38.82
2022-09-03T15:30:19.162Z,39.06
2022-09-03T15:33:05.704Z,39.05
2022-09-03T15:35:56.831Z,38.96
2022-09-03T15:38:36.976Z,38.80
2022-09-03T15:41:14.216Z,39.00
2022-09-03T15:43:51.105Z,39.09
2022-09-03T15:46:39.542Z,39.26
2022-09-03T15:49:20.658Z,39.50
2022-09-03T15:52:13.880Z,39.85
2022-09-03T15:55:02.641Z,40.18
2022-09-03T15:57:51.568Z,40.71
2022-09-03T16:03:52.199Z,41.51
2022-09-03T16:06:34.310Z,41.88
2022-09-03T16:12:22.056Z,42.24
2022-09-03T16:14:58.928Z,42.49
2022-09-03T16:17:36.783Z,42.73
2022-09-03T16:20:29.664Z,42.94
2022-09-03T16:23:09.642Z,43.12
2022-09-03T16:25:51.997Z,43.22
2022-09-03T16:28:31.647Z,43.36
2022-09-03T16:31:13.191Z,43.55
2022-09-03T16:33:54.436Z,43.64
2022-09-03T16:36:39.620Z,43.92
2022-09-03T16:39:20.323Z,44.04
2022-09-03T16:42:01.341Z,44.09
2022-09-03T16:44:41.376Z,44.13
2022-09-03T16:47:18.933Z,44.08
2022-09-03T16:50:12.870Z,44.09
2022-09-03T16:52:50.725Z,44.19
2022-09-03T16:55:24.620Z,44.25
2022-09-03T16:58:13.975Z,43.29
2022-09-03T17:00:58.874Z,43.99
2022-09-03T17:04:25.819Z,44.14
2022-09-03T17:09:47.707Z,44.08
2022-09-03T17:12:25.828Z,44.39
2022-09-03T17:15:39.132Z,44.45
2022-09-03T17:21:20.861Z,44.58
2022-09-03T17:24:11.331Z,44.88
2022-09-03T17:26:52.241Z,45.01
2022-09-03T17:29:45.717Z,45.15
2022-09-03T17:32:26.596Z,45.21
2022-09-03T17:35:09.294Z,45.08
2022-09-03T17:37:55.298Z,45.22
2022-09-03T17:40:36.155Z,45.24
2022-09-03T17:43:14.670Z,45.34
2022-09-03T17:45:52.130Z,45.25
2022-09-03T17:48:45.417Z,45.20
2022-09-03T17:51:28.964Z,45.22
2022-09-03T17:56:59.926Z,45.11
2022-09-03T17:59:38.909Z,46.96
2022-09-03T18:02:18.803Z,45.96
2022-09-03T18:04:55.850Z,45.83
2022-09-03T18:07:32.074Z,45.74
2022-09-03T18:10:14.220Z,45.88
2022-09-03T18:13:01.340Z,46.01
2022-09-03T18:15:29.450Z,46.31
2022-09-03T18:18:05.350Z,46.57
2022-09-03T18:21:22.878Z,47.24
2022-09-03T18:23:59.843Z,47.24
2022-09-03T18:26:53.011Z,47.58
2022-09-03T18:29:51.176Z,47.69
2022-09-03T18:32:40.418Z,47.77
2022-09-03T18:35:31.497Z,48.50
2022-09-03T18:38:24.169Z,48.88
2022-09-03T18:41:17.589Z,48.98
2022-09-03T18:44:12.692Z,48.95
2022-09-03T18:48:02.983Z,49.32
2022-09-03T18:50:03.057Z,49.65
2022-09-03T18:52:56.393Z,49.77
2022-09-03T18:55:50.961Z,49.93
2022-09-03T18:58:45.114Z,49.84
2022-09-03T19:01:39.396Z,50.00
2022-09-03T19:04:33.682Z,50.20
2022-09-03T19:07:28.500Z,50.40
2022-09-03T19:10:21.809Z,50.62
2022-09-03T19:13:25.136Z,50.65
2022-09-03T19:16:19.217Z,50.49
2022-09-03T19:19:25.515Z,50.29
2022-09-03T19:22:18.368Z,50.43
2022-09-03T19:25:13.564Z,50.50
2022-09-03T19:28:07.520Z,50.83
2022-09-03T19:31:03.541Z,50.99
2022-09-03T19:33:57.329Z,51.06
2022-09-03T19:36:50.813Z,51.32
2022-09-03T19:39:48.242Z,51.49
2022-09-03T19:42:43.191Z,52.21
2022-09-03T19:45:37.300Z,53.81
2022-09-03T19:48:32.502Z,56.08
2022-09-03T19:51:26.329Z,55.15
2022-09-03T19:54:19.003Z,54.43
2022-09-03T19:57:10.643Z,53.69
2022-09-03T20:00:03.534Z,53.79
2022-09-03T20:02:57.775Z,53.70
2022-09-03T20:05:48.542Z,53.82
2022-09-03T20:08:41.154Z,53.71
2022-09-03T20:11:19.085Z,53.80
2022-09-03T20:14:08.573Z,53.94
2022-09-03T20:16:46.157Z,52.80
2022-09-03T20:19:23.720Z,54.59
2022-09-03T20:21:59.705Z,55.05
2022-09-03T20:27:25.905Z,55.55
2022-09-03T20:30:03.733Z,59.99
2022-09-03T20:32:46.681Z,58.29
2022-09-03T20:35:23.200Z,57.97
2022-09-03T20:38:00.562Z,57.93
2022-09-03T20:40:39.524Z,57.74
2022-09-03T20:43:38.914Z,57.89
2022-09-03T20:46:17.406Z,57.94
2022-09-03T20:48:56.033Z,57.73
2022-09-03T20:51:33.842Z,57.90
2022-09-03T20:54:17.186Z,57.98
2022-09-03T20:57:14.113Z,57.94
2022-09-03T21:00:00.706Z,57.94
2022-09-03T21:02:42.580Z,57.90
2022-09-03T21:05:20.081Z,57.98
2022-09-03T21:08:00.048Z,57.90
2022-09-03T21:10:36.206Z,57.98
2022-09-03T21:13:14.384Z,58.06
2022-09-03T21:15:56.421Z,58.25
2022-09-03T21:18:32.407Z,58.37
2022-09-03T21:23:54.156Z,58.20
2022-09-03T21:26:30.109Z,58.49
2022-09-03T21:29:06.561Z,58.53
2022-09-03T21:31:42.668Z,58.74
2022-09-03T21:34:19.372Z,58.95
2022-09-03T21:36:53.600Z,58.73
2022-09-03T21:39:31.049Z,58.83
2022-09-03T21:42:07.057Z,58.96
2022-09-03T21:44:55.355Z,59.16
2022-09-03T21:47:31.395Z,59.34
2022-09-03T21:50:13.082Z,59.33
2022-09-03T21:52:47.799Z,59.74
2022-09-03T21:55:25.418Z,59.78
2022-09-03T21:58:09.182Z,59.86
2022-09-03T22:00:42.235Z,60.03
2022-09-03T22:03:15.603Z,60.11
2022-09-03T22:05:51.551Z,60.13
2022-09-03T22:11:12.451Z,59.70
2022-09-03T22:13:48.713Z,59.64
2022-09-03T22:16:24.685Z,59.49
2022-09-03T22:18:58.696Z,59.55
2022-09-03T22:21:36.119Z,59.54
2022-09-03T22:24:17.172Z,59.63
2022-09-03T22:26:54.131Z,59.77
2022-09-03T22:29:35.498Z,60.00
2022-09-03T22:35:02.858Z,60.21
2022-09-03T22:37:48.566Z,60.47
2022-09-03T22:40:25.229Z,60.41
2022-09-03T22:43:06.941Z,60.74
2022-09-03T22:45:49.675Z,60.63
2022-09-03T22:48:27.600Z,60.68
2022-09-03T22:51:00.554Z,60.68
2022-09-03T22:53:42.891Z,59.04
2022-09-03T22:56:20.499Z,60.17
2022-09-03T22:58:57.815Z,60.79
2022-09-03T23:01:34.973Z,61.13
2022-09-03T23:04:13.120Z,61.22
2022-09-03T23:06:52.934Z,61.17
2022-09-03T23:09:28.974Z,61.19
2022-09-03T23:12:06.343Z,61.13
2022-09-03T23:14:44.160Z,61.10
2022-09-03T23:17:22.434Z,61.11
2022-09-03T23:20:00.821Z,61.19
2022-09-03T23:22:38.829Z,61.41
2022-09-03T23:25:15.588Z,61.52
2022-09-03T23:27:53.326Z,61.47
2022-09-03T23:30:26.612Z,61.43
2022-09-03T23:33:01.365Z,61.49
2022-09-03T23:35:37.295Z,61.65
2022-09-03T23:38:15.960Z,61.76
2022-09-03T23:40:51.621Z,61.79
2022-09-03T23:43:51.021Z,61.94
2022-09-03T23:46:28.055Z,62.00
2022-09-03T23:49:09.305Z,61.96
2022-09-03T23:51:49.029Z,62.13
2022-09-03T23:54:27.554Z,62.03
2022-09-03T23:57:25.668Z,62.05
